Time,TemperatureF,DewpointF,PressureIn,WindDirection,WindDirectionDegrees,WindSpeedMPH,WindSpeedGustMPH,Humidity,HourlyPrecipIn,Conditions,Clouds,dailyrainin,SolarRadiationWatts/m^2,SoftwareType,DateUTC
2013-02-07 00:00:00,49.8,49.0,29.66,SW,216,6.0,7.0,97,0.00,,---,0.00,0.00,VWS V14.01,2013-02-07 06:00:00,
2013-02-07 00:03:00,50.1,49.3,29.66,WNW,296,5.0,7.0,97,0.00,,---,0.00,0.00,VWS V14.01,2013-02-07 06:03:00,
2013-02-07 00:05:00,49.9,49.1,29.66,NW,323,5.0,7.0,97,0.00,,---,0.00,0.00,VWS V14.01,2013-02-07 06:05:00,
2013-02-07 00:08:00,50.4,49.9,29.66,WSW,256,3.0,6.0,98,0.00,,---,0.00,0.00,VWS V14.01,2013-02-07 06:08:00,
2013-02-07 00:10:00,50.4,49.9,29.66,SW,230,3.0,6.0,98,0.00,,---,0.00,0.00,VWS V14.01,2013-02-07 06:10:00,
2013-02-07 00:13:00,50.8,50.3,29.65,SSE,167,5.0,6.0,98,0.00,,---,0.00,0.00,VWS V14.01,2013-02-07 06:13:00,
2013-02-07 00:15:00,50.8,50.3,29.65,South,184,5.0,6.0,98,0.00,,---,0.00,0.00,VWS V14.01,2013-02-07 06:15:00,
2013-02-07 00:18:00,51.6,51.1,29.65,West,272,5.0,6.0,98,0.00,,---,0.00,0.00,VWS V14.01,2013-02-07 06:18:00,
2013-02-07 00:20:00,51.6,51.1,29.65,North,0,4.0,6.0,98,0.00,,---,0.00,0.00,VWS V14.01,2013-02-07 06:20:00,
2013-02-07 00:24:00,52.0,51.5,29.65,West,268,5.0,7.0,98,0.00,,---,0.00,0.00,VWS V14.01,2013-02-07 06:24:00,
2013-02-07 00:25:00,52.2,51.7,29.65,South,186,6.0,7.0,98,0.00,,---,0.00,0.00,VWS V14.01,2013-02-07 06:25:00,
2013-02-07 00:29:00,52.5,52.0,29.64,NNW,332,7.0,9.0,98,0.00,,---,0.00,0.00,VWS V14.01,2013-02-07 06:29:00,
2013-02-07 00:30:00,52.5,52.0,29.64,North,0,6.0,9.0,98,0.00,,---,0.00,0.00,VWS V14.01,2013-02-07 06:30:00,
2013-02-07 00:34:00,53.1,52.8,29.64,WSW,237,6.0,10.0,99,0.00,,---,0.00,0.00,VWS V14.01,2013-02-07 06:34:00,
2013-02-07 00:35:00,53.1,52.8,29.64,SSW,203,6.0,10.0,99,0.00,,---,0.00,0.00,VWS V14.01,2013-02-07 06:35:00,
2013-02-07 00:39:00,53.5,53.2,29.64,SW,234,7.0,12.0,99,0.00,,---,0.00,0.00,VWS V14.01,2013-02-07 06:39:00,
2013-02-07 00:40:00,53.5,53.2,29.64,SW,234,7.0,12.0,99,0.00,,---,0.00,0.00,VWS V14.01,2013-02-07 06:40:00,
2013-02-07 00:44:00,53.9,53.6,29.63,SSW,193,7.0,11.0,99,0.00,,---,0.00,0.00,VWS V14.01,2013-02-07 06:44:00,
2013-02-07 00:45:00,53.9,53.6,29.63,SSW,193,7.0,11.0,99,0.00,,---,0.00,0.00,VWS V14.01,2013-02-07 06:45:00,
2013-02-07 00:49:00,53.9,53.3,29.63,WNW,285,7.0,10.0,98,0.00,,---,0.00,0.00,VWS V14.01,2013-02-07 06:49:00,
2013-02-07 00:50:00,53.9,53.3,29.63,WNW,285,7.0,10.0,98,0.00,,---,0.00,0.00,VWS V14.01,2013-02-07 06:50:00,
2013-02-07 00:54:00,53.9,53.3,29.63,SSW,212,5.0,7.0,98,0.00,,---,0.00,0.00,VWS V14.01,2013-02-07 06:54:00,
2013-02-07 00:55:00,53.9,53.3,29.63,SSW,212,5.0,7.0,98,0.00,,---,0.00,0.00,VWS V14.01,2013-02-07 06:55:00,
2013-02-07 00:59:00,54.1,53.5,29.63,South,185,4.0,7.0,98,0.00,,---,0.00,0.00,VWS V14.01,2013-02-07 06:59:00,
2013-02-07 01:00:00,53.9,53.3,29.63,South,184,3.0,7.0,98,0.00,,---,0.00,0.00,VWS V14.01,2013-02-07 07:00:00,
2013-02-07 01:04:00,53.9,53.3,29.63,SSW,198,3.0,5.0,98,0.00,,---,0.00,0.00,VWS V14.01,2013-02-07 07:04:00,
2013-02-07 01:05:00,53.9,53.3,29.63,SSW,198,3.0,5.0,98,0.00,,---,0.00,0.00,VWS V14.01,2013-02-07 07:05:00,
2013-02-07 01:09:00,53.8,53.2,29.63,SSW,200,3.0,5.0,98,0.00,,---,0.00,0.00,VWS V14.01,2013-02-07 07:09:00,
2013-02-07 01:10:00,53.8,53.2,29.63,SSW,200,3.0,5.0,98,0.00,,---,0.00,0.00,VWS V14.01,2013-02-07 07:10:00,
2013-02-07 01:14:00,53.8,53.2,29.63,WSW,257,2.0,4.0,98,0.00,,---,0.00,0.00,VWS V14.01,2013-02-07 07:14:00,
2013-02-07 01:15:00,53.8,53.2,29.63,WSW,257,2.0,4.0,98,0.00,,---,0.00,0.00,VWS V14.01,2013-02-07 07:15:00,
2013-02-07 01:19:00,53.8,53.2,29.63,SW,230,0.0,3.0,98,0.00,,---,0.00,0.00,VWS V14.01,2013-02-07 07:19:00,
2013-02-07 01:20:00,53.8,53.2,29.63,SW,230,0.0,3.0,98,0.00,,---,0.00,0.00,VWS V14.01,2013-02-07 07:20:00,
2013-02-07 01:24:00,53.9,53.3,29.63,SSW,199,0.0,0.0,98,0.00,,---,0.00,0.00,VWS V14.01,2013-02-07 07:24:00,
2013-02-07 01:25:00,53.9,53.3,29.63,SSW,199,0.0,0.0,98,0.00,,---,0.00,0.00,VWS V14.01,2013-02-07 07:25:00,
2013-02-07 01:29:00,53.8,53.2,29.62,SSW,199,0.0,0.0,98,0.00,,---,0.00,0.00,VWS V14.01,2013-02-07 07:29:00,
2013-02-07 01:30:00,53.8,53.2,29.62,SSW,205,0.0,0.0,98,0.00,,---,0.00,0.00,VWS V14.01,2013-02-07 07:30:00,
2013-02-07 01:34:00,53.9,53.3,29.62,SSW,200,0.0,0.0,98,0.00,,---,0.00,0.00,VWS V14.01,2013-02-07 07:34:00,
2013-02-07 01:35:00,54.1,53.5,29.62,South,191,0.0,0.0,98,0.00,,---,0.00,0.00,VWS V14.01,2013-02-07 07:35:00,
2013-02-07 01:39:00,53.9,53.3,29.62,South,191,2.0,5.0,98,0.00,,---,0.00,0.00,VWS V14.01,2013-02-07 07:39:00,
2013-02-07 01:40:00,53.9,53.3,29.62,North,352,0.0,0.0,98,0.00,,---,0.00,0.00,VWS V14.01,2013-02-07 07:40:00,
2013-02-07 01:44:00,53.8,53.2,29.61,South,186,0.0,0.0,98,0.00,,---,0.00,0.00,VWS V14.01,2013-02-07 07:44:00,
2013-02-07 01:45:00,53.8,53.2,29.61,SSW,195,0.0,5.0,98,0.00,,---,0.00,0.00,VWS V14.01,2013-02-07 07:45:00,
2013-02-07 01:50:00,53.9,53.3,29.61,SE,134,11.0,11.0,98,0.01,,---,0.01,0.00,VWS V14.01,2013-02-07 07:50:00,
2013-02-07 01:55:00,54.2,53.9,29.61,SE,133,6.0,12.0,99,0.01,,---,0.01,0.00,VWS V14.01,2013-02-07 07:55:00,
2013-02-07 02:00:00,54.4,54.1,29.61,SW,220,8.0,11.0,99,0.01,,---,0.01,0.00,VWS V14.01,2013-02-07 08:00:00,
2013-02-07 02:05:00,54.5,54.2,29.61,SSE,167,6.0,6.0,99,0.01,,---,0.01,0.00,VWS V14.01,2013-02-07 08:05:00,
2013-02-07 02:10:00,54.1,53.5,29.61,North,0,5.0,8.0,98,0.01,,---,0.01,0.00,VWS V14.01,2013-02-07 08:10:00,
2013-02-07 02:15:00,54.2,53.7,29.61,WNW,291,9.0,12.0,98,0.03,,---,0.03,0.00,VWS V14.01,2013-02-07 08:15:00,
2013-02-07 02:20:00,53.9,53.3,29.61,NW,322,10.0,11.0,98,0.04,,---,0.04,0.00,VWS V14.01,2013-02-07 08:20:00,
2013-02-07 02:25:00,53.9,53.3,29.61,West,275,7.0,10.0,98,0.05,,---,0.05,0.00,VWS V14.01,2013-02-07 08:25:00,
2013-02-07 02:30:00,53.9,53.3,29.61,SSW,198,19.0,20.0,98,0.05,,---,0.05,0.00,VWS V14.01,2013-02-07 08:30:00,
2013-02-07 02:31:00,54.1,53.5,29.61,West,261,12.0,19.0,98,0.05,,---,0.05,0.00,VWS V14.01,2013-02-07 08:31:00,
2013-02-07 02:35:00,53.9,53.3,29.61,South,182,13.0,21.0,98,0.05,,---,0.05,0.00,VWS V14.01,2013-02-07 08:35:00,
2013-02-07 02:36:00,53.8,53.2,29.61,WSW,240,17.0,21.0,98,0.05,,---,0.05,0.00,VWS V14.01,2013-02-07 08:36:00,
2013-02-07 02:40:00,53.8,53.2,29.61,WNW,301,21.0,21.0,98,0.05,,---,0.05,0.00,VWS V14.01,2013-02-07 08:40:00,
2013-02-07 02:41:00,53.5,53.2,29.61,West,265,16.0,21.0,99,0.05,,---,0.05,0.00,VWS V14.01,2013-02-07 08:41:00,
2013-02-07 02:45:00,53.8,53.2,29.63,SSW,205,13.0,21.0,98,0.06,,---,0.06,0.00,VWS V14.01,2013-02-07 08:45:00,
2013-02-07 02:46:00,53.3,52.8,29.63,NNW,332,11.0,14.0,98,0.06,,---,0.06,0.00,VWS V14.01,2013-02-07 08:46:00,
2013-02-07 02:50:00,53.3,52.8,29.63,WNW,285,13.0,14.0,98,0.07,,---,0.07,0.00,VWS V14.01,2013-02-07 08:50:00,
2013-02-07 02:51:00,53.6,53.0,29.63,NNW,332,11.0,14.0,98,0.08,,---,0.08,0.00,VWS V14.01,2013-02-07 08:51:00,
2013-02-07 02:55:00,53.2,52.7,29.63,North,0,5.0,14.0,98,0.09,,---,0.09,0.00,VWS V14.01,2013-02-07 08:55:00,
2013-02-07 02:56:00,53.6,53.0,29.63,NW,312,3.0,7.0,98,0.08,,---,0.09,0.00,VWS V14.01,2013-02-07 08:56:00,
2013-02-07 03:00:00,53.6,53.0,29.64,NNW,344,4.0,7.0,98,0.09,,---,0.10,0.00,VWS V14.01,2013-02-07 09:00:00,
2013-02-07 03:01:00,53.6,53.0,29.64,North,350,5.0,10.0,98,0.10,,---,0.11,0.00,VWS V14.01,2013-02-07 09:01:00,
2013-02-07 03:05:00,53.5,53.0,29.64,WNW,288,0.0,10.0,98,0.12,,---,0.13,0.00,VWS V14.01,2013-02-07 09:05:00,
2013-02-07 03:06:00,53.6,53.0,29.64,WNW,284,0.0,0.0,98,0.13,,---,0.14,0.00,VWS V14.01,2013-02-07 09:06:00,
2013-02-07 03:10:00,53.3,52.8,29.64,WNW,291,1.0,1.0,98,0.14,,---,0.15,0.00,VWS V14.01,2013-02-07 09:10:00,
2013-02-07 03:11:00,53.2,52.7,29.64,WNW,299,0.0,3.0,98,0.15,,---,0.16,0.00,VWS V14.01,2013-02-07 09:11:00,
2013-02-07 03:15:00,53.5,53.0,29.63,WSW,237,0.0,3.0,98,0.16,,---,0.17,0.00,VWS V14.01,2013-02-07 09:15:00,
2013-02-07 03:17:00,53.1,52.5,29.63,NW,304,0.0,0.0,98,0.14,,---,0.17,0.00,VWS V14.01,2013-02-07 09:17:00,
2013-02-07 03:20:00,53.5,53.0,29.63,WNW,284,4.0,4.0,98,0.15,,---,0.18,0.00,VWS V14.01,2013-02-07 09:20:00,
2013-02-07 03:22:00,53.1,52.5,29.63,North,350,8.0,8.0,98,0.14,,---,0.18,0.00,VWS V14.01,2013-02-07 09:22:00,
2013-02-07 03:25:00,53.2,52.7,29.63,North,0,5.0,10.0,98,0.14,,---,0.18,0.00,VWS V14.01,2013-02-07 09:25:00,
2013-02-07 03:27:00,53.2,52.9,29.63,North,359,4.0,7.0,99,0.13,,---,0.18,0.00,VWS V14.01,2013-02-07 09:27:00,
2013-02-07 03:30:00,53.6,53.0,29.63,SW,236,4.0,7.0,98,0.13,,---,0.18,0.00,VWS V14.01,2013-02-07 09:30:00,
2013-02-07 03:32:00,53.2,52.7,29.63,WNW,298,5.0,8.0,98,0.14,,---,0.19,0.00,VWS V14.01,2013-02-07 09:32:00,
2013-02-07 03:35:00,53.5,53.0,29.63,SW,236,5.0,8.0,98,0.15,,---,0.20,0.00,VWS V14.01,2013-02-07 09:35:00,
2013-02-07 03:37:00,53.2,52.7,29.63,West,263,2.0,5.0,98,0.15,,---,0.20,0.00,VWS V14.01,2013-02-07 09:37:00,
2013-02-07 03:40:00,53.5,53.0,29.63,West,264,2.0,5.0,98,0.16,,---,0.21,0.00,VWS V14.01,2013-02-07 09:40:00,
2013-02-07 03:42:00,53.3,53.0,29.63,WSW,240,3.0,5.0,99,0.16,,---,0.21,0.00,VWS V14.01,2013-02-07 09:42:00,
2013-02-07 03:45:00,53.3,53.0,29.63,WSW,254,0.0,5.0,99,0.16,,---,0.21,0.00,VWS V14.01,2013-02-07 09:45:00,
2013-02-07 03:47:00,53.2,52.9,29.63,WSW,237,0.0,0.0,99,0.16,,---,0.22,0.00,VWS V14.01,2013-02-07 09:47:00,
2013-02-07 03:50:00,53.3,53.0,29.63,WSW,253,0.0,0.0,99,0.16,,---,0.22,0.00,VWS V14.01,2013-02-07 09:50:00,
2013-02-07 03:52:00,52.9,52.6,29.63,WSW,241,0.0,0.0,99,0.16,,---,0.23,0.00,VWS V14.01,2013-02-07 09:52:00,
2013-02-07 03:55:00,53.2,52.9,29.63,WSW,246,0.0,0.0,99,0.16,,---,0.23,0.00,VWS V14.01,2013-02-07 09:55:00,
2013-02-07 03:57:00,52.8,52.5,29.63,SW,219,0.0,0.0,99,0.15,,---,0.24,0.00,VWS V14.01,2013-02-07 09:57:00,
2013-02-07 04:00:00,52.9,52.6,29.63,NNW,335,4.0,4.0,99,0.15,,---,0.24,0.00,VWS V14.01,2013-02-07 10:00:00,
2013-02-07 04:03:00,52.8,52.5,29.63,North,356,10.0,12.0,99,0.15,,---,0.25,0.00,VWS V14.01,2013-02-07 10:03:00,
2013-02-07 04:05:00,52.8,52.2,29.63,SSW,202,6.0,12.0,98,0.17,,---,0.27,0.00,VWS V14.01,2013-02-07 10:05:00,
2013-02-07 04:08:00,52.8,52.2,29.63,West,272,7.0,13.0,98,0.18,,---,0.31,0.00,VWS V14.01,2013-02-07 10:08:00,
2013-02-07 04:10:00,52.6,52.0,29.63,WNW,298,7.0,13.0,98,0.19,,---,0.32,0.00,VWS V14.01,2013-02-07 10:10:00,
2013-02-07 04:13:00,52.5,52.0,29.63,SW,236,13.0,13.0,98,0.20,,---,0.35,0.00,VWS V14.01,2013-02-07 10:13:00,
2013-02-07 04:15:00,52.3,52.0,29.64,NNW,333,11.0,13.0,99,0.21,,---,0.36,0.00,VWS V14.01,2013-02-07 10:15:00,
2013-02-07 04:18:00,52.2,51.7,29.64,WNW,295,8.0,18.0,98,0.20,,---,0.37,0.00,VWS V14.01,2013-02-07 10:18:00,
2013-02-07 04:20:00,51.7,51.2,29.64,North,0,10.0,18.0,98,0.20,,---,0.37,0.00,VWS V14.01,2013-02-07 10:20:00,
2013-02-07 04:23:00,51.7,51.2,29.64,NNW,330,6.0,12.0,98,0.21,,---,0.39,0.00,VWS V14.01,2013-02-07 10:23:00,
2013-02-07 04:25:00,51.6,51.3,29.64,North,0,7.0,12.0,99,0.21,,---,0.39,0.00,VWS V14.01,2013-02-07 10:25:00,
2013-02-07 04:28:00,51.7,51.4,29.65,NE,37,7.0,12.0,99,0.24,,---,0.42,0.00,VWS V14.01,2013-02-07 10:28:00,
2013-02-07 04:30:00,51.7,51.4,29.65,NNE,24,7.0,12.0,99,0.24,,---,0.42,0.00,VWS V14.01,2013-02-07 10:30:00,
2013-02-07 04:33:00,51.9,51.6,29.65,North,0,8.0,10.0,99,0.25,,---,0.43,0.00,VWS V14.01,2013-02-07 10:33:00,
2013-02-07 04:35:00,51.4,51.1,29.65,North,4,12.0,12.0,99,0.25,,---,0.43,0.00,VWS V14.01,2013-02-07 10:35:00,
2013-02-07 04:39:00,51.6,51.3,29.65,NNE,28,7.0,12.0,99,0.23,,---,0.43,0.00,VWS V14.01,2013-02-07 10:39:00,
2013-02-07 04:40:00,51.7,51.4,29.65,North,349,8.0,12.0,99,0.24,,---,0.44,0.00,VWS V14.01,2013-02-07 10:40:00,
2013-02-07 04:44:00,51.6,51.3,29.66,North,0,11.0,13.0,99,0.24,,---,0.45,0.00,VWS V14.01,2013-02-07 10:44:00,
2013-02-07 04:45:00,51.6,51.3,29.66,North,4,10.0,13.0,99,0.24,,---,0.45,0.00,VWS V14.01,2013-02-07 10:45:00,
2013-02-07 04:49:00,51.6,51.3,29.66,North,0,16.0,18.0,99,0.25,,---,0.46,0.00,VWS V14.01,2013-02-07 10:49:00,
2013-02-07 04:50:00,51.4,51.1,29.66,North,0,14.0,18.0,99,0.25,,---,0.46,0.00,VWS V14.01,2013-02-07 10:50:00,
2013-02-07 04:54:00,51.9,51.6,29.66,North,0,16.0,18.0,99,0.25,,---,0.47,0.00,VWS V14.01,2013-02-07 10:54:00,
2013-02-07 04:55:00,51.9,51.6,29.66,North,0,16.0,18.0,99,0.25,,---,0.47,0.00,VWS V14.01,2013-02-07 10:55:00,
2013-02-07 04:59:00,51.9,51.6,29.66,East,92,20.0,21.0,99,0.25,,---,0.48,0.00,VWS V14.01,2013-02-07 10:59:00,
2013-02-07 05:00:00,51.9,51.6,29.66,ENE,71,18.0,21.0,99,0.25,,---,0.48,0.00,VWS V14.01,2013-02-07 11:00:00,
2013-02-07 05:04:00,51.4,51.1,29.66,NW,323,21.0,25.0,99,0.25,,---,0.49,0.00,VWS V14.01,2013-02-07 11:04:00,
2013-02-07 05:05:00,51.4,51.1,29.66,NW,323,21.0,25.0,99,0.25,,---,0.49,0.00,VWS V14.01,2013-02-07 11:05:00,
2013-02-07 05:09:00,50.7,50.4,29.66,SSE,152,20.0,20.0,99,0.20,,---,0.52,0.00,VWS V14.01,2013-02-07 11:09:00,
2013-02-07 05:10:00,50.7,50.4,29.66,ESE,103,16.0,24.0,99,0.25,,---,0.52,0.00,VWS V14.01,2013-02-07 11:10:00,
2013-02-07 05:14:00,50.5,50.2,29.68,East,88,12.0,12.0,99,0.17,,---,0.53,0.00,VWS V14.01,2013-02-07 11:14:00,
2013-02-07 05:15:00,50.4,50.1,29.68,ENE,78,9.0,24.0,99,0.21,,---,0.53,0.00,VWS V14.01,2013-02-07 11:15:00,
2013-02-07 05:19:00,49.5,49.2,29.68,NE,41,17.0,19.0,99,0.17,,---,0.54,0.00,VWS V14.01,2013-02-07 11:19:00,
2013-02-07 05:20:00,49.9,49.6,29.68,North,3,17.0,24.0,99,0.18,,---,0.54,0.00,VWS V14.01,2013-02-07 11:20:00,
2013-02-07 05:24:00,49.6,49.3,29.68,ESE,109,10.0,16.0,99,0.16,,---,0.55,0.00,VWS V14.01,2013-02-07 11:24:00,
2013-02-07 05:25:00,49.2,48.9,29.68,East,100,14.0,19.0,99,0.18,,---,0.55,0.00,VWS V14.01,2013-02-07 11:25:00,
2013-02-07 05:30:00,49.2,48.9,29.69,East,97,12.0,17.0,99,0.14,,---,0.56,0.00,VWS V14.01,2013-02-07 11:30:00,
2013-02-07 05:35:00,48.5,48.2,29.69,SSW,210,11.0,14.0,99,0.15,,---,0.58,0.00,VWS V14.01,2013-02-07 11:35:00,
2013-02-07 05:40:00,48.3,48.0,29.69,West,275,10.0,16.0,99,0.16,,---,0.60,0.00,VWS V14.01,2013-02-07 11:40:00,
2013-02-07 05:45:00,48.3,48.0,29.71,North,3,8.0,14.0,99,0.16,,---,0.61,0.00,VWS V14.01,2013-02-07 11:45:00,
2013-02-07 05:50:00,48.2,47.9,29.71,North,0,11.0,14.0,99,0.17,,---,0.63,0.00,VWS V14.01,2013-02-07 11:50:00,
2013-02-07 05:55:00,47.9,47.6,29.71,North,0,11.0,12.0,99,0.18,,---,0.65,0.00,VWS V14.01,2013-02-07 11:55:00,
2013-02-07 06:00:00,48.0,47.7,29.73,ENE,58,11.0,14.0,99,0.19,,---,0.67,0.00,VWS V14.01,2013-02-07 12:00:00,
2013-02-07 06:05:00,47.7,47.4,29.73,NE,52,11.0,16.0,99,0.21,,---,0.69,0.00,VWS V14.01,2013-02-07 12:05:00,
2013-02-07 06:06:00,47.7,47.4,29.73,South,178,12.0,16.0,99,0.21,,---,0.70,0.00,VWS V14.01,2013-02-07 12:06:00,
2013-02-07 06:10:00,47.6,47.3,29.73,WSW,240,17.0,17.0,99,0.22,,---,0.71,0.00,VWS V14.01,2013-02-07 12:10:00,
2013-02-07 06:11:00,47.7,47.4,29.73,South,184,12.0,17.0,99,0.20,,---,0.72,0.00,VWS V14.01,2013-02-07 12:11:00,
2013-02-07 06:15:00,47.6,47.3,29.73,SW,229,13.0,17.0,99,0.22,,---,0.74,0.00,VWS V14.01,2013-02-07 12:15:00,
2013-02-07 06:16:00,47.4,47.1,29.73,ENE,58,12.0,15.0,99,0.21,,---,0.74,0.00,VWS V14.01,2013-02-07 12:16:00,
2013-02-07 06:20:00,47.4,47.1,29.73,WSW,247,14.0,15.0,99,0.23,,---,0.76,0.00,VWS V14.01,2013-02-07 12:20:00,
2013-02-07 06:21:00,47.3,47.0,29.73,SW,215,9.0,14.0,99,0.22,,---,0.76,0.00,VWS V14.01,2013-02-07 12:21:00,
2013-02-07 06:25:00,47.0,46.7,29.73,NE,55,11.0,16.0,99,0.23,,---,0.77,0.00,VWS V14.01,2013-02-07 12:25:00,
2013-02-07 06:26:00,47.4,47.1,29.73,SSE,165,17.0,18.0,99,0.23,,---,0.78,0.00,VWS V14.01,2013-02-07 12:26:00,
2013-02-07 06:30:00,47.1,46.8,29.73,ESE,116,8.0,18.0,99,0.24,,---,0.79,0.00,VWS V14.01,2013-02-07 12:30:00,
2013-02-07 06:31:00,47.1,46.8,29.73,SSW,200,12.0,14.0,99,0.23,,---,0.79,0.00,VWS V14.01,2013-02-07 12:31:00,
2013-02-07 06:35:00,47.3,47.0,29.73,East,82,10.0,14.0,99,0.24,,---,0.80,0.00,VWS V14.01,2013-02-07 12:35:00,
2013-02-07 06:37:00,47.3,47.0,29.73,SW,230,12.0,14.0,99,0.23,,---,0.81,0.00,VWS V14.01,2013-02-07 12:37:00,
2013-02-07 06:40:00,47.1,46.8,29.73,NNE,18,12.0,14.0,99,0.24,,---,0.82,0.00,VWS V14.01,2013-02-07 12:40:00,
2013-02-07 06:42:00,46.8,46.5,29.73,North,4,14.0,14.0,99,0.23,,---,0.82,0.00,VWS V14.01,2013-02-07 12:42:00,
2013-02-07 06:45:00,46.8,46.5,29.74,North,0,13.0,17.0,99,0.24,,---,0.83,0.00,VWS V14.01,2013-02-07 12:45:00,
2013-02-07 06:47:00,46.5,46.2,29.74,North,0,14.0,18.0,99,0.23,,---,0.83,0.00,VWS V14.01,2013-02-07 12:47:00,
2013-02-07 06:50:00,46.7,46.4,29.74,North,0,12.0,18.0,99,0.23,,---,0.83,0.00,VWS V14.01,2013-02-07 12:50:00,
2013-02-07 06:52:00,46.7,46.4,29.74,NNW,340,12.0,14.0,99,0.21,,---,0.84,0.00,VWS V14.01,2013-02-07 12:52:00,
2013-02-07 06:55:00,46.5,46.2,29.74,NW,318,10.0,17.0,99,0.21,,---,0.84,0.00,VWS V14.01,2013-02-07 12:55:00,
2013-02-07 06:57:00,46.2,45.9,29.74,NNE,20,17.0,18.0,99,0.20,,---,0.84,0.00,VWS V14.01,2013-02-07 12:57:00,
2013-02-07 07:00:00,45.8,45.5,29.74,South,186,12.0,18.0,99,0.21,,---,0.85,0.00,VWS V14.01,2013-02-07 13:00:00,
2013-02-07 07:02:00,46.0,45.7,29.74,South,182,11.0,14.0,99,0.18,,---,0.85,0.00,VWS V14.01,2013-02-07 13:02:00,
2013-02-07 07:05:00,46.0,45.7,29.74,North,359,11.0,16.0,99,0.18,,---,0.85,0.00,VWS V14.01,2013-02-07 13:05:00,
2013-02-07 07:07:00,45.5,45.2,29.74,North,0,14.0,17.0,99,0.17,,---,0.86,0.00,VWS V14.01,2013-02-07 13:07:00,
2013-02-07 07:10:00,45.4,45.1,29.74,ENE,73,20.0,20.0,99,0.17,,---,0.86,0.00,VWS V14.01,2013-02-07 13:10:00,
2013-02-07 07:12:00,44.6,44.3,29.74,North,0,16.0,20.0,99,0.15,,---,0.86,0.00,VWS V14.01,2013-02-07 13:12:00,
2013-02-07 07:15:00,44.2,43.9,29.75,ESE,110,16.0,20.0,99,0.15,,---,0.86,0.00,VWS V14.01,2013-02-07 13:15:00,
2013-02-07 07:18:00,44.1,43.8,29.75,NE,41,13.0,17.0,99,0.12,,---,0.86,0.00,VWS V14.01,2013-02-07 13:18:00,
2013-02-07 07:20:00,44.2,43.9,29.75,NNW,335,12.0,17.0,99,0.12,,---,0.86,0.00,VWS V14.01,2013-02-07 13:20:00,
2013-02-07 07:23:00,43.5,43.2,29.75,NE,42,12.0,16.0,99,0.10,,---,0.86,0.00,VWS V14.01,2013-02-07 13:23:00,
2013-02-07 07:25:00,43.9,43.6,29.75,North,0,12.0,17.0,99,0.10,,---,0.86,0.00,VWS V14.01,2013-02-07 13:25:00,
2013-02-07 07:30:00,43.9,43.6,29.75,North,0,12.0,17.0,99,0.10,,---,0.86,0.00,VWS V14.01,2013-02-07 13:30:00,
2013-02-07 07:35:00,42.6,42.3,29.76,East,89,17.0,19.0,99,0.06,,---,0.86,0.00,VWS V14.01,2013-02-07 13:35:00,
2013-02-07 07:40:00,42.3,42.0,29.76,NE,49,14.0,17.0,99,0.04,,---,0.86,0.00,VWS V14.01,2013-02-07 13:40:00,
2013-02-07 07:45:00,41.6,41.3,29.77,North,0,16.0,19.0,99,0.04,,---,0.87,0.00,VWS V14.01,2013-02-07 13:45:00,
2013-02-07 07:50:00,41.6,41.3,29.77,East,80,17.0,20.0,99,0.04,,---,0.87,0.00,VWS V14.01,2013-02-07 13:50:00,
2013-02-07 07:55:00,41.1,40.8,29.77,NNW,342,12.0,19.0,99,0.03,,---,0.87,0.00,VWS V14.01,2013-02-07 13:55:00,
2013-02-07 08:00:00,40.6,40.3,29.78,NE,52,18.0,18.0,99,0.02,,---,0.87,5.00,VWS V14.01,2013-02-07 14:00:00,
2013-02-07 08:05:00,40.5,40.2,29.78,ENE,58,17.0,17.0,99,0.02,,---,0.87,11.00,VWS V14.01,2013-02-07 14:05:00,
2013-02-07 08:10:00,40.3,39.8,29.78,North,359,10.0,18.0,98,0.02,,---,0.87,11.00,VWS V14.01,2013-02-07 14:10:00,
2013-02-07 08:11:00,40.2,39.7,29.78,NE,55,13.0,15.0,98,0.01,,---,0.87,9.00,VWS V14.01,2013-02-07 14:11:00,
2013-02-07 08:15:00,40.3,39.8,29.80,North,0,11.0,15.0,98,0.01,,---,0.87,9.00,VWS V14.01,2013-02-07 14:15:00,
2013-02-07 08:16:00,40.2,39.7,29.80,North,359,13.0,16.0,98,0.01,,---,0.87,18.00,VWS V14.01,2013-02-07 14:16:00,
2013-02-07 08:20:00,40.3,39.5,29.80,North,0,16.0,17.0,97,0.01,,---,0.87,25.00,VWS V14.01,2013-02-07 14:20:00,
2013-02-07 08:21:00,40.1,39.3,29.80,North,0,10.0,17.0,97,0.01,,---,0.87,25.00,VWS V14.01,2013-02-07 14:21:00,
2013-02-07 08:25:00,40.2,39.4,29.80,ENE,68,13.0,17.0,97,0.01,,---,0.87,35.00,VWS V14.01,2013-02-07 14:25:00,
2013-02-07 08:26:00,40.2,39.2,29.80,North,0,15.0,16.0,96,0.01,,---,0.87,35.00,VWS V14.01,2013-02-07 14:26:00,
2013-02-07 08:30:00,40.2,39.2,29.80,North,0,14.0,16.0,96,0.01,,---,0.87,40.00,VWS V14.01,2013-02-07 14:30:00,
2013-02-07 08:31:00,40.2,39.2,29.80,ENE,68,11.0,15.0,96,0.01,,---,0.87,42.00,VWS V14.01,2013-02-07 14:31:00,
2013-02-07 08:35:00,40.1,39.0,29.80,NNW,342,8.0,17.0,96,0.01,,---,0.87,42.00,VWS V14.01,2013-02-07 14:35:00,
2013-02-07 08:36:00,40.2,39.2,29.80,North,0,16.0,19.0,96,0.01,,---,0.87,44.00,VWS V14.01,2013-02-07 14:36:00,
2013-02-07 08:40:00,40.2,38.9,29.80,SSW,192,16.0,19.0,95,0.01,,---,0.87,56.00,VWS V14.01,2013-02-07 14:40:00,
2013-02-07 08:41:00,40.2,38.9,29.80,North,0,12.0,17.0,95,0.01,,---,0.87,62.00,VWS V14.01,2013-02-07 14:41:00,
2013-02-07 08:45:00,40.3,39.0,29.81,North,0,13.0,17.0,95,0.01,,---,0.87,70.00,VWS V14.01,2013-02-07 14:45:00,
2013-02-07 08:46:00,40.3,39.0,29.81,North,0,6.0,14.0,95,0.00,,---,0.87,67.00,VWS V14.01,2013-02-07 14:46:00,
2013-02-07 08:50:00,40.3,39.0,29.81,North,0,12.0,14.0,95,0.00,,---,0.87,67.00,VWS V14.01,2013-02-07 14:50:00,
2013-02-07 08:51:00,40.3,39.0,29.81,NNW,332,10.0,13.0,95,0.00,,---,0.87,72.00,VWS V14.01,2013-02-07 14:51:00,
2013-02-07 08:55:00,40.3,38.7,29.81,North,0,8.0,13.0,94,0.00,,---,0.87,76.00,VWS V14.01,2013-02-07 14:55:00,
2013-02-07 08:57:00,40.3,38.7,29.81,NNW,335,11.0,14.0,94,0.00,,---,0.87,88.00,VWS V14.01,2013-02-07 14:57:00,
2013-02-07 09:00:00,40.3,38.7,29.82,North,0,10.0,14.0,94,0.00,,---,0.87,90.00,VWS V14.01,2013-02-07 15:00:00,
2013-02-07 09:02:00,40.5,38.9,29.82,North,0,8.0,14.0,94,0.00,,---,0.87,102.00,VWS V14.01,2013-02-07 15:02:00,
2013-02-07 09:05:00,40.5,38.9,29.82,North,353,11.0,14.0,94,0.00,,---,0.87,102.00,VWS V14.01,2013-02-07 15:05:00,
2013-02-07 09:07:00,40.5,38.6,29.82,NW,319,8.0,16.0,93,0.00,,---,0.87,113.00,VWS V14.01,2013-02-07 15:07:00,
2013-02-07 09:10:00,40.5,38.6,29.82,North,357,11.0,16.0,93,0.00,,---,0.87,102.00,VWS V14.01,2013-02-07 15:10:00,
2013-02-07 09:12:00,40.6,38.7,29.82,NW,311,11.0,16.0,93,0.00,,---,0.87,104.00,VWS V14.01,2013-02-07 15:12:00,
2013-02-07 09:15:00,40.8,38.7,29.82,North,0,12.0,16.0,92,0.00,,---,0.87,104.00,VWS V14.01,2013-02-07 15:15:00,
2013-02-07 09:17:00,40.9,38.8,29.82,North,0,10.0,16.0,92,0.00,,---,0.87,107.00,VWS V14.01,2013-02-07 15:17:00,
2013-02-07 09:20:00,40.9,38.8,29.82,NNW,332,9.0,16.0,92,0.00,,---,0.87,114.00,VWS V14.01,2013-02-07 15:20:00,
2013-02-07 09:22:00,41.1,38.7,29.82,NNW,330,12.0,18.0,91,0.00,,---,0.87,130.00,VWS V14.01,2013-02-07 15:22:00,
2013-02-07 09:25:00,41.1,38.4,29.82,ENE,64,13.0,18.0,90,0.00,,---,0.87,130.00,VWS V14.01,2013-02-07 15:25:00,
2013-02-07 09:27:00,41.3,38.3,29.82,NNW,346,12.0,16.0,89,0.00,,---,0.87,130.00,VWS V14.01,2013-02-07 15:27:00,
2013-02-07 09:30:00,41.3,38.3,29.84,North,0,13.0,19.0,89,0.00,,---,0.87,125.00,VWS V14.01,2013-02-07 15:30:00,
2013-02-07 09:32:00,41.3,38.0,29.84,North,357,14.0,16.0,88,0.00,,---,0.87,141.00,VWS V14.01,2013-02-07 15:32:00,
2013-02-07 09:35:00,41.3,37.7,29.84,NNW,335,12.0,17.0,87,0.00,,---,0.87,164.00,VWS V14.01,2013-02-07 15:35:00,
2013-02-07 09:38:00,41.5,37.9,29.84,North,354,11.0,20.0,87,0.00,,---,0.87,234.00,VWS V14.01,2013-02-07 15:38:00,
2013-02-07 09:40:00,41.6,37.7,29.84,North,359,7.0,20.0,86,0.00,,---,0.87,238.00,VWS V14.01,2013-02-07 15:40:00,
2013-02-07 09:43:00,41.9,38.0,29.84,North,0,9.0,18.0,86,0.00,,---,0.87,276.00,VWS V14.01,2013-02-07 15:43:00,
2013-02-07 09:45:00,42.1,38.2,29.83,North,0,18.0,21.0,86,0.00,,---,0.87,320.00,VWS V14.01,2013-02-07 15:45:00,
2013-02-07 09:48:00,42.1,37.6,29.83,North,359,13.0,22.0,84,0.00,,---,0.87,371.00,VWS V14.01,2013-02-07 15:48:00,
2013-02-07 09:50:00,42.2,37.1,29.83,North,353,13.0,22.0,82,0.00,,---,0.87,377.00,VWS V14.01,2013-02-07 15:50:00,
2013-02-07 09:53:00,42.6,37.2,29.83,North,0,16.0,19.0,81,0.00,,---,0.87,399.00,VWS V14.01,2013-02-07 15:53:00,
2013-02-07 09:55:00,42.8,37.4,29.83,North,0,18.0,19.0,81,0.00,,---,0.87,399.00,VWS V14.01,2013-02-07 15:55:00,
2013-02-07 09:58:00,42.6,36.5,29.84,North,0,13.0,18.0,79,0.00,,---,0.87,306.00,VWS V14.01,2013-02-07 15:58:00,
2013-02-07 10:00:00,42.6,36.6,29.84,North,0,12.0,18.0,79,0.00,,---,0.87,306.00,VWS V14.01,2013-02-07 16:00:00,
2013-02-07 10:03:00,42.8,36.4,29.84,North,11,16.0,19.0,78,0.00,,---,0.87,282.00,VWS V14.01,2013-02-07 16:03:00,
2013-02-07 10:05:00,42.8,36.4,29.84,NE,51,12.0,19.0,78,0.00,,---,0.87,282.00,VWS V14.01,2013-02-07 16:05:00,
2013-02-07 10:08:00,42.6,35.6,29.84,North,352,13.0,17.0,76,0.00,,---,0.87,255.00,VWS V14.01,2013-02-07 16:08:00,
2013-02-07 10:10:00,42.8,35.8,29.84,NNE,18,10.0,17.0,76,0.00,,---,0.87,255.00,VWS V14.01,2013-02-07 16:10:00,
2013-02-07 10:13:00,42.8,35.4,29.84,North,0,10.0,16.0,75,0.00,,---,0.87,194.00,VWS V14.01,2013-02-07 16:13:00,
2013-02-07 10:15:00,42.8,35.4,29.84,North,3,11.0,16.0,75,0.00,,---,0.87,194.00,VWS V14.01,2013-02-07 16:15:00,
2013-02-07 10:18:00,43.1,35.4,29.84,NNW,344,11.0,18.0,74,0.00,,---,0.87,183.00,VWS V14.01,2013-02-07 16:18:00,
2013-02-07 10:20:00,43.1,35.7,29.84,North,0,17.0,18.0,75,0.00,,---,0.87,183.00,VWS V14.01,2013-02-07 16:20:00,
2013-02-07 10:24:00,43.5,35.8,29.84,NNW,344,10.0,17.0,74,0.00,,---,0.87,232.00,VWS V14.01,2013-02-07 16:24:00,
2013-02-07 10:25:00,43.5,36.1,29.84,North,0,17.0,17.0,75,0.00,,---,0.87,232.00,VWS V14.01,2013-02-07 16:25:00,
2013-02-07 10:29:00,44.2,36.1,29.85,NNW,336,12.0,22.0,73,0.00,,---,0.87,343.00,VWS V14.01,2013-02-07 16:29:00,
2013-02-07 10:30:00,44.2,36.5,29.85,North,0,13.0,22.0,74,0.00,,---,0.87,343.00,VWS V14.01,2013-02-07 16:30:00,
2013-02-07 10:34:00,44.9,36.8,29.85,NNW,342,13.0,20.0,73,0.00,,---,0.87,385.00,VWS V14.01,2013-02-07 16:34:00,
2013-02-07 10:35:00,44.9,36.8,29.85,North,354,11.0,20.0,73,0.00,,---,0.87,385.00,VWS V14.01,2013-02-07 16:35:00,
2013-02-07 10:39:00,45.4,36.9,29.85,North,0,16.0,19.0,72,0.00,,---,0.87,230.00,VWS V14.01,2013-02-07 16:39:00,
2013-02-07 10:40:00,45.4,36.9,29.85,North,0,12.0,19.0,72,0.00,,---,0.87,230.00,VWS V14.01,2013-02-07 16:40:00,
2013-02-07 10:44:00,45.4,36.9,29.85,North,359,13.0,19.0,72,0.00,,---,0.87,290.00,VWS V14.01,2013-02-07 16:44:00,
2013-02-07 10:45:00,45.4,36.9,29.85,NNW,333,15.0,19.0,72,0.00,,---,0.87,290.00,VWS V14.01,2013-02-07 16:45:00,
2013-02-07 10:49:00,45.4,35.8,29.85,North,359,17.0,22.0,69,0.00,,---,0.87,306.00,VWS V14.01,2013-02-07 16:49:00,
2013-02-07 10:50:00,45.4,35.8,29.85,North,359,17.0,22.0,69,0.00,,---,0.87,306.00,VWS V14.01,2013-02-07 16:50:00,
2013-02-07 10:54:00,45.7,36.1,29.85,NE,51,17.0,21.0,69,0.00,,---,0.87,252.00,VWS V14.01,2013-02-07 16:54:00,
2013-02-07 10:55:00,45.7,36.1,29.85,NE,51,17.0,21.0,69,0.00,,---,0.87,252.00,VWS V14.01,2013-02-07 16:55:00,
2013-02-07 10:59:00,45.7,35.8,29.85,ENE,65,12.0,17.0,68,0.00,,---,0.87,310.00,VWS V14.01,2013-02-07 16:59:00,
2013-02-07 11:00:00,45.7,35.8,29.85,North,0,17.0,25.0,68,0.00,,---,0.87,304.00,VWS V14.01,2013-02-07 17:00:00,
2013-02-07 11:04:00,45.8,35.8,29.85,North,1,19.0,21.0,68,0.00,,---,0.87,266.00,VWS V14.01,2013-02-07 17:04:00,
2013-02-07 11:05:00,45.7,35.8,29.85,East,83,21.0,21.0,68,0.00,,---,0.87,266.00,VWS V14.01,2013-02-07 17:05:00,
2013-02-07 11:09:00,45.7,35.4,29.85,East,97,18.0,20.0,67,0.00,,---,0.87,389.00,VWS V14.01,2013-02-07 17:09:00,
2013-02-07 11:10:00,45.7,35.4,29.85,North,0,18.0,22.0,67,0.00,,---,0.87,296.00,VWS V14.01,2013-02-07 17:10:00,
2013-02-07 11:14:00,46.1,35.8,29.86,North,359,16.0,21.0,67,0.00,,---,0.87,350.00,VWS V14.01,2013-02-07 17:14:00,
2013-02-07 11:15:00,46.0,35.7,29.86,North,0,16.0,21.0,67,0.00,,---,0.87,350.00,VWS V14.01,2013-02-07 17:15:00,
2013-02-07 11:20:00,46.7,36.0,29.86,North,353,16.0,17.0,66,0.00,,---,0.87,350.00,VWS V14.01,2013-02-07 17:20:00,
2013-02-07 11:25:00,47.3,35.8,29.86,NNW,339,18.0,19.0,64,0.00,,---,0.87,347.00,VWS V14.01,2013-02-07 17:25:00,
2013-02-07 11:30:00,47.3,35.8,29.86,NNW,336,19.0,19.0,64,0.00,,---,0.87,378.00,VWS V14.01,2013-02-07 17:30:00,
2013-02-07 11:35:00,47.0,35.5,29.86,North,353,12.0,19.0,64,0.00,,---,0.87,229.00,VWS V14.01,2013-02-07 17:35:00,
2013-02-07 11:40:00,46.5,35.0,29.86,North,0,18.0,18.0,64,0.00,,---,0.87,206.00,VWS V14.01,2013-02-07 17:40:00,
2013-02-07 11:45:00,45.5,34.4,29.86,North,359,20.0,22.0,65,0.00,,---,0.87,188.00,VWS V14.01,2013-02-07 17:45:00,
2013-02-07 11:50:00,44.8,33.8,29.86,NW,325,16.0,21.0,65,0.00,,---,0.87,202.00,VWS V14.01,2013-02-07 17:50:00,
2013-02-07 11:55:00,44.5,33.5,29.86,WNW,302,18.0,22.0,65,0.00,,---,0.87,216.00,VWS V14.01,2013-02-07 17:55:00,
2013-02-07 12:00:00,44.8,33.8,29.88,North,0,13.0,22.0,65,0.00,,---,0.87,201.00,VWS V14.01,2013-02-07 18:00:00,
2013-02-07 12:05:00,45.1,34.0,29.88,NNW,343,18.0,25.0,65,0.00,,---,0.87,194.00,VWS V14.01,2013-02-07 18:05:00,
2013-02-07 12:06:00,45.2,34.2,29.88,North,0,15.0,18.0,65,0.00,,---,0.87,190.00,VWS V14.01,2013-02-07 18:06:00,
2013-02-07 12:10:00,45.4,34.3,29.88,NNW,346,19.0,25.0,65,0.00,,---,0.87,202.00,VWS V14.01,2013-02-07 18:10:00,
2013-02-07 12:11:00,45.4,34.3,29.88,North,356,19.0,19.0,65,0.00,,---,0.87,229.00,VWS V14.01,2013-02-07 18:11:00,
2013-02-07 12:15:00,45.7,34.2,29.87,NNW,346,13.0,22.0,64,0.00,,---,0.87,229.00,VWS V14.01,2013-02-07 18:15:00,
2013-02-07 12:16:00,45.7,33.8,29.87,NNW,332,17.0,24.0,63,0.00,,---,0.87,528.00,VWS V14.01,2013-02-07 18:16:00,
2013-02-07 12:20:00,45.5,34.0,29.87,North,353,18.0,25.0,64,0.00,,---,0.87,355.00,VWS V14.01,2013-02-07 18:20:00,
2013-02-07 12:21:00,45.5,34.0,29.87,North,0,16.0,18.0,64,0.00,,---,0.87,355.00,VWS V14.01,2013-02-07 18:21:00,
2013-02-07 12:25:00,46.0,34.9,29.87,North,0,10.0,19.0,65,0.00,,---,0.87,577.00,VWS V14.01,2013-02-07 18:25:00,
2013-02-07 12:26:00,46.2,34.7,29.87,North,359,19.0,24.0,64,0.00,,---,0.87,611.00,VWS V14.01,2013-02-07 18:26:00,
2013-02-07 12:30:00,46.5,34.2,29.87,North,359,18.0,24.0,62,0.00,,---,0.87,642.00,VWS V14.01,2013-02-07 18:30:00,
2013-02-07 12:31:00,46.8,34.9,29.87,NNW,347,16.0,20.0,63,0.00,,---,0.87,642.00,VWS V14.01,2013-02-07 18:31:00,
2013-02-07 12:35:00,47.1,34.8,29.87,North,359,10.0,20.0,62,0.00,,---,0.87,253.00,VWS V14.01,2013-02-07 18:35:00,
2013-02-07 12:36:00,47.3,35.0,29.87,North,0,21.0,21.0,62,0.00,,---,0.87,206.00,VWS V14.01,2013-02-07 18:36:00,
2013-02-07 12:40:00,47.1,34.4,29.87,NNW,332,18.0,21.0,61,0.00,,---,0.87,165.00,VWS V14.01,2013-02-07 18:40:00,
2013-02-07 12:41:00,47.0,34.3,29.87,ENE,73,14.0,22.0,61,0.00,,---,0.87,157.00,VWS V14.01,2013-02-07 18:41:00,
2013-02-07 12:45:00,47.1,34.8,29.87,NW,312,12.0,22.0,62,0.00,,---,0.87,146.00,VWS V14.01,2013-02-07 18:45:00,
2013-02-07 12:46:00,47.3,34.5,29.87,NE,38,14.0,17.0,61,0.00,,---,0.87,137.00,VWS V14.01,2013-02-07 18:46:00,
2013-02-07 12:50:00,47.6,34.8,29.87,North,350,20.0,21.0,61,0.00,,---,0.87,128.00,VWS V14.01,2013-02-07 18:50:00,
2013-02-07 12:51:00,47.7,34.5,29.87,North,354,18.0,20.0,60,0.00,,---,0.87,123.00,VWS V14.01,2013-02-07 18:51:00,
2013-02-07 12:55:00,48.0,34.4,29.87,North,359,19.0,21.0,59,0.00,,---,0.87,123.00,VWS V14.01,2013-02-07 18:55:00,
2013-02-07 12:57:00,48.3,35.1,29.87,North,354,12.0,20.0,60,0.00,,---,0.87,412.00,VWS V14.01,2013-02-07 18:57:00,
2013-02-07 13:00:00,48.3,34.7,29.86,WNW,282,15.0,21.0,59,0.00,,---,0.87,433.00,VWS V14.01,2013-02-07 19:00:00,
2013-02-07 13:02:00,48.2,34.6,29.86,North,356,15.0,19.0,59,0.00,,---,0.87,605.00,VWS V14.01,2013-02-07 19:02:00,
2013-02-07 13:05:00,48.0,34.4,29.86,North,0,12.0,19.0,59,0.00,,---,0.87,521.00,VWS V14.01,2013-02-07 19:05:00,
2013-02-07 13:07:00,48.5,35.3,29.86,NW,311,17.0,19.0,60,0.00,,---,0.87,595.00,VWS V14.01,2013-02-07 19:07:00,
2013-02-07 13:10:00,48.6,34.9,29.86,NW,318,5.0,20.0,59,0.00,,---,0.87,593.00,VWS V14.01,2013-02-07 19:10:00,
2013-02-07 13:12:00,49.1,35.4,29.86,North,0,14.0,14.0,59,0.00,,---,0.87,588.00,VWS V14.01,2013-02-07 19:12:00,
2013-02-07 13:15:00,49.2,35.5,29.86,North,350,12.0,16.0,59,0.00,,---,0.87,584.00,VWS V14.01,2013-02-07 19:15:00,
2013-02-07 13:17:00,49.2,35.1,29.86,West,281,18.0,18.0,58,0.00,,---,0.87,581.00,VWS V14.01,2013-02-07 19:17:00,
2013-02-07 13:20:00,49.1,35.0,29.86,North,0,24.0,24.0,58,0.00,,---,0.87,582.00,VWS V14.01,2013-02-07 19:20:00,
2013-02-07 13:22:00,49.2,35.1,29.86,NW,315,12.0,24.0,58,0.00,,---,0.87,584.00,VWS V14.01,2013-02-07 19:22:00,
2013-02-07 13:25:00,49.4,34.8,29.86,North,356,14.0,24.0,57,0.00,,---,0.87,574.00,VWS V14.01,2013-02-07 19:25:00,
2013-02-07 13:27:00,49.6,35.5,29.86,WNW,299,16.0,22.0,58,0.00,,---,0.87,507.00,VWS V14.01,2013-02-07 19:27:00,
2013-02-07 13:30:00,49.6,34.1,29.85,North,356,17.0,22.0,55,0.00,,---,0.87,535.00,VWS V14.01,2013-02-07 19:30:00,
2013-02-07 13:32:00,49.6,34.6,29.85,ENE,61,17.0,22.0,56,0.00,,---,0.87,500.00,VWS V14.01,2013-02-07 19:32:00,
2013-02-07 13:35:00,49.8,34.8,29.85,North,0,18.0,22.0,56,0.00,,---,0.87,95.00,VWS V14.01,2013-02-07 19:35:00,
2013-02-07 13:37:00,50.1,34.6,29.85,North,357,14.0,22.0,55,0.00,,---,0.87,48.00,VWS V14.01,2013-02-07 19:37:00,
2013-02-07 13:40:00,50.2,34.2,29.85,NNW,346,10.0,22.0,54,0.00,,---,0.87,48.00,VWS V14.01,2013-02-07 19:40:00,
2013-02-07 13:42:00,50.2,34.2,29.85,NE,38,18.0,20.0,54,0.00,,---,0.87,48.00,VWS V14.01,2013-02-07 19:42:00,
2013-02-07 13:45:00,50.2,33.7,29.85,NE,45,17.0,26.0,53,0.00,,---,0.87,46.00,VWS V14.01,2013-02-07 19:45:00,
2013-02-07 13:48:00,50.1,33.2,29.85,NNE,28,19.0,22.0,52,0.00,,---,0.87,56.00,VWS V14.01,2013-02-07 19:48:00,
2013-02-07 13:50:00,50.1,33.7,29.85,North,0,17.0,24.0,53,0.00,,---,0.87,56.00,VWS V14.01,2013-02-07 19:50:00,
2013-02-07 13:53:00,49.9,33.5,29.85,SSE,152,17.0,22.0,53,0.00,,---,0.87,558.00,VWS V14.01,2013-02-07 19:53:00,
2013-02-07 13:55:00,50.1,34.6,29.85,North,0,14.0,22.0,55,0.00,,---,0.87,558.00,VWS V14.01,2013-02-07 19:55:00,
2013-02-07 13:58:00,50.4,34.4,29.85,North,0,19.0,20.0,54,0.00,,---,0.87,554.00,VWS V14.01,2013-02-07 19:58:00,
2013-02-07 14:00:00,50.4,33.9,29.85,NE,42,22.0,22.0,53,0.00,,---,0.87,552.00,VWS V14.01,2013-02-07 20:00:00,
2013-02-07 14:03:00,51.0,34.0,29.85,NNW,339,20.0,26.0,52,0.00,,---,0.87,549.00,VWS V14.01,2013-02-07 20:03:00,
2013-02-07 14:05:00,51.0,33.5,29.85,NE,44,14.0,26.0,51,0.00,,---,0.87,545.00,VWS V14.01,2013-02-07 20:05:00,
2013-02-07 14:08:00,51.1,34.1,29.85,NE,40,15.0,21.0,52,0.00,,---,0.87,540.00,VWS V14.01,2013-02-07 20:08:00,
2013-02-07 14:10:00,51.1,33.1,29.85,NE,48,13.0,21.0,50,0.00,,---,0.87,538.00,VWS V14.01,2013-02-07 20:10:00,
2013-02-07 14:13:00,51.1,33.1,29.85,NE,54,20.0,21.0,50,0.00,,---,0.87,533.00,VWS V14.01,2013-02-07 20:13:00,
2013-02-07 14:15:00,51.1,33.6,29.85,ENE,73,20.0,21.0,51,0.00,,---,0.87,531.00,VWS V14.01,2013-02-07 20:15:00,
2013-02-07 14:18:00,51.4,33.4,29.85,North,359,12.0,20.0,50,0.00,,---,0.87,526.00,VWS V14.01,2013-02-07 20:18:00,
2013-02-07 14:20:00,51.4,33.4,29.85,North,0,21.0,21.0,50,0.00,,---,0.87,526.00,VWS V14.01,2013-02-07 20:20:00,
2013-02-07 14:23:00,51.7,32.7,29.85,North,0,17.0,24.0,48,0.00,,---,0.87,521.00,VWS V14.01,2013-02-07 20:23:00,
2013-02-07 14:25:00,51.9,32.8,29.85,North,0,13.0,24.0,48,0.00,,---,0.87,517.00,VWS V14.01,2013-02-07 20:25:00,
2013-02-07 14:29:00,52.2,31.5,29.85,North,0,18.0,26.0,45,0.00,,---,0.87,512.00,VWS V14.01,2013-02-07 20:29:00,
2013-02-07 14:30:00,52.2,32.1,29.85,ESE,106,13.0,26.0,46,0.00,,---,0.87,512.00,VWS V14.01,2013-02-07 20:30:00,
2013-02-07 14:34:00,52.3,31.6,29.85,SSE,165,21.0,21.0,45,0.00,,---,0.87,505.00,VWS V14.01,2013-02-07 20:34:00,
2013-02-07 14:35:00,52.3,31.6,29.85,ESE,110,19.0,22.0,45,0.00,,---,0.87,505.00,VWS V14.01,2013-02-07 20:35:00,
2013-02-07 14:39:00,52.2,32.1,29.85,NE,45,16.0,24.0,46,0.00,,---,0.87,496.00,VWS V14.01,2013-02-07 20:39:00,
2013-02-07 14:40:00,52.2,32.1,29.85,NNE,30,14.0,24.0,46,0.00,,---,0.87,496.00,VWS V14.01,2013-02-07 20:40:00,
2013-02-07 14:44:00,52.2,31.5,29.85,NNE,14,17.0,22.0,45,0.00,,---,0.87,489.00,VWS V14.01,2013-02-07 20:44:00,
2013-02-07 14:45:00,52.2,31.5,29.85,ESE,121,20.0,22.0,45,0.00,,---,0.87,489.00,VWS V14.01,2013-02-07 20:45:00,
2013-02-07 14:49:00,52.6,32.4,29.85,North,357,15.0,20.0,46,0.00,,---,0.87,480.00,VWS V14.01,2013-02-07 20:49:00,
2013-02-07 14:50:00,52.6,32.4,29.85,North,357,15.0,20.0,46,0.00,,---,0.87,480.00,VWS V14.01,2013-02-07 20:50:00,
2013-02-07 14:54:00,52.6,31.9,29.85,ENE,61,18.0,24.0,45,0.00,,---,0.87,470.00,VWS V14.01,2013-02-07 20:54:00,
2013-02-07 14:55:00,52.6,31.9,29.85,ENE,61,18.0,24.0,45,0.00,,---,0.87,470.00,VWS V14.01,2013-02-07 20:55:00,
2013-02-07 14:59:00,52.6,30.8,29.85,East,97,16.0,24.0,43,0.00,,---,0.87,463.00,VWS V14.01,2013-02-07 20:59:00,
2013-02-07 15:00:00,52.6,30.8,29.85,East,97,16.0,24.0,43,0.00,,---,0.87,463.00,VWS V14.01,2013-02-07 21:00:00,
2013-02-07 15:04:00,53.1,31.8,29.85,NE,40,12.0,19.0,44,0.00,,---,0.87,450.00,VWS V14.01,2013-02-07 21:04:00,
2013-02-07 15:05:00,53.1,31.8,29.85,NE,40,12.0,19.0,44,0.00,,---,0.87,450.00,VWS V14.01,2013-02-07 21:05:00,
2013-02-07 15:09:00,52.8,29.8,29.85,East,89,16.0,28.0,41,0.00,,---,0.87,431.00,VWS V14.01,2013-02-07 21:09:00,
2013-02-07 15:10:00,52.8,29.8,29.85,East,89,16.0,28.0,41,0.00,,---,0.87,431.00,VWS V14.01,2013-02-07 21:10:00,
2013-02-07 15:14:00,52.9,31.0,29.85,ENE,68,19.0,21.0,43,0.00,,---,0.87,422.00,VWS V14.01,2013-02-07 21:14:00,
2013-02-07 15:15:00,52.9,31.0,29.85,ENE,68,19.0,21.0,43,0.00,,---,0.87,422.00,VWS V14.01,2013-02-07 21:15:00,
2013-02-07 15:19:00,52.9,31.0,29.85,SSW,210,20.0,20.0,43,0.00,,---,0.87,326.00,VWS V14.01,2013-02-07 21:19:00,
2013-02-07 15:20:00,52.9,31.0,29.85,ENE,76,17.0,24.0,43,0.00,,---,0.87,313.00,VWS V14.01,2013-02-07 21:20:00,
2013-02-07 15:24:00,53.1,31.8,29.85,North,0,18.0,18.0,44,0.00,,---,0.87,398.00,VWS V14.01,2013-02-07 21:24:00,
2013-02-07 15:25:00,53.1,31.8,29.85,North,4,17.0,24.0,44,0.00,,---,0.87,399.00,VWS V14.01,2013-02-07 21:25:00,
2013-02-07 15:29:00,53.2,30.1,29.85,SW,216,13.0,20.0,41,0.00,,---,0.87,385.00,VWS V14.01,2013-02-07 21:29:00,
2013-02-07 15:30:00,53.2,30.1,29.85,East,100,20.0,24.0,41,0.00,,---,0.87,387.00,VWS V14.01,2013-02-07 21:30:00,
2013-02-07 15:34:00,52.9,28.6,29.85,NNE,17,21.0,24.0,39,0.00,,---,0.87,375.00,VWS V14.01,2013-02-07 21:34:00,
2013-02-07 15:35:00,53.1,28.8,29.85,SE,143,24.0,25.0,39,0.00,,---,0.87,377.00,VWS V14.01,2013-02-07 21:35:00,
2013-02-07 15:39:00,52.9,29.2,29.85,North,359,21.0,22.0,40,0.00,,---,0.87,362.00,VWS V14.01,2013-02-07 21:39:00,
2013-02-07 15:40:00,52.9,29.2,29.85,East,86,22.0,25.0,40,0.00,,---,0.87,362.00,VWS V14.01,2013-02-07 21:40:00,
2013-02-07 15:45:00,52.9,29.9,29.86,ESE,102,18.0,21.0,41,0.00,,---,0.87,350.00,VWS V14.01,2013-02-07 21:45:00,
2013-02-07 15:50:00,52.8,30.4,29.86,North,0,11.0,16.0,42,0.00,,---,0.87,340.00,VWS V14.01,2013-02-07 21:50:00,
2013-02-07 15:55:00,53.1,31.2,29.86,North,0,16.0,19.0,43,0.00,,---,0.87,320.00,VWS V14.01,2013-02-07 21:55:00,
2013-02-07 16:00:00,52.9,31.6,29.87,NE,41,11.0,13.0,44,0.00,,---,0.87,308.00,VWS V14.01,2013-02-07 22:00:00,
2013-02-07 16:05:00,53.1,32.3,29.87,NE,54,9.0,17.0,45,0.00,,---,0.87,294.00,VWS V14.01,2013-02-07 22:05:00,
2013-02-07 16:10:00,52.9,30.5,29.87,North,359,12.0,18.0,42,0.00,,---,0.87,273.00,VWS V14.01,2013-02-07 22:10:00,
2013-02-07 16:15:00,52.8,30.4,29.87,North,356,17.0,19.0,42,0.00,,---,0.87,259.00,VWS V14.01,2013-02-07 22:15:00,
2013-02-07 16:20:00,52.8,29.8,29.87,NNE,21,17.0,19.0,41,0.00,,---,0.87,245.00,VWS V14.01,2013-02-07 22:20:00,
2013-02-07 16:25:00,52.3,29.3,29.87,NE,55,17.0,21.0,41,0.00,,---,0.87,230.00,VWS V14.01,2013-02-07 22:25:00,
2013-02-07 16:30:00,52.2,29.2,29.88,ESE,109,17.0,21.0,41,0.00,,---,0.87,218.00,VWS V14.01,2013-02-07 22:30:00,
2013-02-07 16:31:00,52.0,29.0,29.88,East,86,17.0,20.0,41,0.00,,---,0.87,216.00,VWS V14.01,2013-02-07 22:31:00,
2013-02-07 16:35:00,52.0,29.0,29.88,NNE,13,18.0,21.0,41,0.00,,---,0.87,204.00,VWS V14.01,2013-02-07 22:35:00,
2013-02-07 16:36:00,51.9,29.0,29.88,SSE,147,15.0,24.0,41,0.00,,---,0.87,199.00,VWS V14.01,2013-02-07 22:36:00,
2013-02-07 16:40:00,51.9,29.5,29.88,ENE,58,13.0,24.0,42,0.00,,---,0.87,190.00,VWS V14.01,2013-02-07 22:40:00,
2013-02-07 16:41:00,51.9,29.5,29.88,SE,128,13.0,18.0,42,0.00,,---,0.87,187.00,VWS V14.01,2013-02-07 22:41:00,
2013-02-07 16:45:00,51.7,29.9,29.89,SE,136,13.0,22.0,43,0.00,,---,0.87,179.00,VWS V14.01,2013-02-07 22:45:00,
2013-02-07 16:46:00,51.7,29.9,29.89,ENE,64,14.0,19.0,43,0.00,,---,0.87,169.00,VWS V14.01,2013-02-07 22:46:00,
2013-02-07 16:50:00,51.7,30.5,29.89,ENE,71,18.0,19.0,44,0.00,,---,0.87,162.00,VWS V14.01,2013-02-07 22:50:00,
2013-02-07 16:51:00,51.6,29.9,29.89,East,82,12.0,21.0,43,0.00,,---,0.87,158.00,VWS V14.01,2013-02-07 22:51:00,
2013-02-07 16:55:00,51.6,31.0,29.89,North,0,13.0,21.0,45,0.00,,---,0.87,150.00,VWS V14.01,2013-02-07 22:55:00,
2013-02-07 16:56:00,51.4,30.8,29.89,SE,138,14.0,14.0,45,0.00,,---,0.87,146.00,VWS V14.01,2013-02-07 22:56:00,
2013-02-07 17:00:00,51.4,30.8,29.89,ENE,69,16.0,18.0,45,0.00,,---,0.87,135.00,VWS V14.01,2013-02-07 23:00:00,
2013-02-07 17:01:00,51.4,30.8,29.89,East,80,17.0,22.0,45,0.00,,---,0.87,132.00,VWS V14.01,2013-02-07 23:01:00,
2013-02-07 17:05:00,51.3,29.6,29.89,NW,322,19.0,22.0,43,0.00,,---,0.87,123.00,VWS V14.01,2013-02-07 23:05:00,
2013-02-07 17:07:00,51.1,29.4,29.89,NNE,20,13.0,20.0,43,0.00,,---,0.87,111.00,VWS V14.01,2013-02-07 23:07:00,
2013-02-07 17:10:00,51.0,29.9,29.89,NE,47,8.0,20.0,44,0.00,,---,0.87,106.00,VWS V14.01,2013-02-07 23:10:00,
2013-02-07 17:12:00,50.8,30.2,29.89,ENE,72,8.0,18.0,45,0.00,,---,0.87,95.00,VWS V14.01,2013-02-07 23:12:00,
2013-02-07 17:15:00,50.7,30.1,29.90,NE,49,14.0,20.0,45,0.00,,---,0.87,90.00,VWS V14.01,2013-02-07 23:15:00,
2013-02-07 17:17:00,50.7,29.6,29.90,ENE,64,13.0,20.0,44,0.00,,---,0.87,81.00,VWS V14.01,2013-02-07 23:17:00,
2013-02-07 17:20:00,50.5,30.0,29.90,NE,54,11.0,20.0,45,0.00,,---,0.87,76.00,VWS V14.01,2013-02-07 23:20:00,
2013-02-07 17:22:00,50.4,30.4,29.90,ESE,116,12.0,16.0,46,0.00,,---,0.87,67.00,VWS V14.01,2013-02-07 23:22:00,
2013-02-07 17:25:00,46.1,30.9,29.94,NNW,332,8.0,12.0,55,0.00,,---,0.87,0.00,VWS V14.01,2013-02-07 23:25:00,
2013-02-07 17:29:00,49.9,30.5,29.91,NE,41,16.0,17.0,47,0.00,,---,0.87,48.00,VWS V14.01,2013-02-07 23:29:00,
2013-02-07 17:30:00,49.9,30.5,29.91,NE,41,16.0,17.0,47,0.00,,---,0.87,48.00,VWS V14.01,2013-02-07 23:30:00,
2013-02-07 17:34:00,49.8,30.9,29.91,NW,326,11.0,17.0,48,0.00,,---,0.87,35.00,VWS V14.01,2013-02-07 23:34:00,
2013-02-07 17:35:00,49.8,30.9,29.91,NW,326,11.0,17.0,48,0.00,,---,0.87,35.00,VWS V14.01,2013-02-07 23:35:00,
2013-02-07 17:39:00,49.4,31.6,29.91,North,352,8.0,12.0,50,0.00,,---,0.87,28.00,VWS V14.01,2013-02-07 23:39:00,
2013-02-07 17:40:00,49.4,31.6,29.91,North,352,8.0,12.0,50,0.00,,---,0.87,28.00,VWS V14.01,2013-02-07 23:40:00,
2013-02-07 17:44:00,49.1,31.8,29.92,North,359,11.0,13.0,51,0.00,,---,0.87,19.00,VWS V14.01,2013-02-07 23:44:00,
2013-02-07 17:45:00,49.1,31.8,29.92,North,359,11.0,13.0,51,0.00,,---,0.87,19.00,VWS V14.01,2013-02-07 23:45:00,
2013-02-07 17:49:00,48.6,31.3,29.92,North,0,15.0,15.0,51,0.00,,---,0.87,12.00,VWS V14.01,2013-02-07 23:49:00,
2013-02-07 17:50:00,48.6,31.3,29.92,North,0,15.0,15.0,51,0.00,,---,0.87,12.00,VWS V14.01,2013-02-07 23:50:00,
2013-02-07 17:54:00,48.3,31.0,29.92,SSE,162,10.0,10.0,51,0.00,,---,0.87,0.00,VWS V14.01,2013-02-07 23:54:00,
2013-02-07 17:55:00,48.3,31.0,29.92,North,0,8.0,15.0,51,0.00,,---,0.87,7.00,VWS V14.01,2013-02-07 23:55:00,
2013-02-07 17:59:00,47.7,31.0,29.93,North,0,10.0,15.0,52,0.00,,---,0.87,0.00,VWS V14.01,2013-02-07 23:59:00,
2013-02-07 18:00:00,47.7,31.0,29.93,North,0,10.0,15.0,52,0.00,,---,0.87,0.00,VWS V14.01,2013-02-08 00:00:00,
2013-02-07 18:04:00,47.4,30.7,29.93,ENE,62,9.0,10.0,52,0.00,,---,0.87,0.00,VWS V14.01,2013-02-08 00:04:00,
2013-02-07 18:05:00,47.4,30.7,29.93,North,0,10.0,13.0,52,0.00,,---,0.87,0.00,VWS V14.01,2013-02-08 00:05:00,
2013-02-07 18:09:00,47.1,30.4,29.93,SE,124,9.0,10.0,52,0.00,,---,0.87,0.00,VWS V14.01,2013-02-08 00:09:00,
2013-02-07 18:10:00,47.1,30.4,29.93,East,89,7.0,12.0,52,0.00,,---,0.87,0.00,VWS V14.01,2013-02-08 00:10:00,
2013-02-07 18:14:00,46.8,30.6,29.94,North,0,8.0,12.0,53,0.00,,---,0.87,0.00,VWS V14.01,2013-02-08 00:14:00,
2013-02-07 18:15:00,43.9,30.1,29.98,NNE,16,10.0,12.0,58,0.00,,---,0.87,0.00,VWS V14.01,2013-02-08 00:15:00,
2013-02-07 18:19:00,46.2,30.5,29.94,North,357,8.0,11.0,54,0.00,,---,0.87,0.00,VWS V14.01,2013-02-08 00:19:00,
2013-02-07 18:20:00,46.4,30.7,29.94,NNE,30,11.0,12.0,54,0.00,,---,0.87,0.00,VWS V14.01,2013-02-08 00:20:00,
2013-02-07 18:25:00,46.1,30.9,29.94,NNE,16,10.0,12.0,55,0.00,,---,0.87,0.00,VWS V14.01,2013-02-08 00:25:00,
2013-02-07 18:30:00,45.8,30.6,29.95,NE,40,6.0,11.0,55,0.00,,---,0.87,0.00,VWS V14.01,2013-02-08 00:30:00,
2013-02-07 18:35:00,45.5,31.2,29.95,SE,143,9.0,10.0,57,0.00,,---,0.87,0.00,VWS V14.01,2013-02-08 00:35:00,
2013-02-07 18:40:00,45.1,31.2,29.95,ESE,114,10.0,10.0,58,0.00,,---,0.87,0.00,VWS V14.01,2013-02-08 00:40:00,
2013-02-07 18:45:00,44.8,31.4,29.96,North,357,7.0,11.0,59,0.00,,---,0.87,0.00,VWS V14.01,2013-02-08 00:45:00,
2013-02-07 18:50:00,44.8,30.9,29.96,North,356,9.0,12.0,58,0.00,,---,0.87,0.00,VWS V14.01,2013-02-08 00:50:00,
2013-02-07 18:55:00,44.6,30.8,29.96,NE,37,8.0,11.0,58,0.00,,---,0.87,0.00,VWS V14.01,2013-02-08 00:55:00,
2013-02-07 19:00:00,44.5,30.7,29.97,SE,145,6.0,11.0,58,0.00,,---,0.87,0.00,VWS V14.01,2013-02-08 01:00:00,
2013-02-07 19:05:00,44.2,30.4,29.97,North,359,8.0,12.0,58,0.00,,---,0.87,0.00,VWS V14.01,2013-02-08 01:05:00,
2013-02-07 19:10:00,44.1,30.3,29.97,NE,55,10.0,12.0,58,0.00,,---,0.87,0.00,VWS V14.01,2013-02-08 01:10:00,
2013-02-07 19:15:00,43.9,30.1,29.98,NNE,16,10.0,12.0,58,0.00,,---,0.87,0.00,VWS V14.01,2013-02-08 01:15:00,
2013-02-07 19:16:00,43.8,30.4,29.98,NE,52,9.0,12.0,59,0.00,,---,0.87,0.00,VWS V14.01,2013-02-08 01:16:00,
2013-02-07 19:20:00,43.6,30.2,29.98,ENE,64,7.0,12.0,59,0.00,,---,0.87,0.00,VWS V14.01,2013-02-08 01:20:00,
2013-02-07 19:21:00,43.6,30.2,29.98,NE,34,7.0,10.0,59,0.00,,---,0.87,0.00,VWS V14.01,2013-02-08 01:21:00,
2013-02-07 19:25:00,43.5,30.5,29.98,ENE,72,6.0,11.0,60,0.00,,---,0.87,0.00,VWS V14.01,2013-02-08 01:25:00,
2013-02-07 19:26:00,43.3,30.4,29.98,NNE,18,7.0,9.0,60,0.00,,---,0.87,0.00,VWS V14.01,2013-02-08 01:26:00,
2013-02-07 19:30:00,43.1,30.6,29.98,ENE,59,8.0,11.0,61,0.00,,---,0.87,0.00,VWS V14.01,2013-02-08 01:30:00,
2013-02-07 19:31:00,43.1,30.6,29.98,ESE,103,10.0,12.0,61,0.00,,---,0.87,0.00,VWS V14.01,2013-02-08 01:31:00,
2013-02-07 19:35:00,42.9,30.4,29.98,North,0,11.0,12.0,61,0.00,,---,0.87,0.00,VWS V14.01,2013-02-08 01:35:00,
2013-02-07 19:36:00,42.8,30.7,29.98,ENE,59,7.0,11.0,62,0.00,,---,0.87,0.00,VWS V14.01,2013-02-08 01:36:00,
2013-02-07 19:40:00,42.6,30.5,29.98,NE,34,7.0,11.0,62,0.00,,---,0.87,0.00,VWS V14.01,2013-02-08 01:40:00,
2013-02-07 19:41:00,42.5,30.4,29.98,SE,144,10.0,10.0,62,0.00,,---,0.87,0.00,VWS V14.01,2013-02-08 01:41:00,
2013-02-07 19:45:00,42.3,30.6,29.98,NE,34,7.0,10.0,63,0.00,,---,0.87,0.00,VWS V14.01,2013-02-08 01:45:00,
2013-02-07 19:46:00,42.2,30.5,29.98,North,7,6.0,9.0,63,0.00,,---,0.87,0.00,VWS V14.01,2013-02-08 01:46:00,
2013-02-07 19:50:00,42.2,30.5,29.98,ENE,65,7.0,10.0,63,0.00,,---,0.87,0.00,VWS V14.01,2013-02-08 01:50:00,
2013-02-07 19:51:00,42.1,30.4,29.98,NNE,14,7.0,8.0,63,0.00,,---,0.87,0.00,VWS V14.01,2013-02-08 01:51:00,
2013-02-07 19:55:00,41.9,30.2,29.98,NNE,18,6.0,10.0,63,0.00,,---,0.87,0.00,VWS V14.01,2013-02-08 01:55:00,
2013-02-07 19:56:00,41.8,30.1,29.98,North,0,5.0,8.0,63,0.00,,---,0.87,0.00,VWS V14.01,2013-02-08 01:56:00,
2013-02-07 20:00:00,41.6,30.3,30.00,North,0,6.0,8.0,64,0.00,,---,0.87,0.00,VWS V14.01,2013-02-08 02:00:00,
2013-02-07 20:02:00,41.3,30.1,30.00,East,80,6.0,7.0,64,0.00,,---,0.87,0.00,VWS V14.01,2013-02-08 02:02:00,
2013-02-07 20:05:00,41.2,30.0,30.00,NE,40,6.0,7.0,64,0.00,,---,0.87,0.00,VWS V14.01,2013-02-08 02:05:00,
2013-02-07 20:07:00,41.1,30.2,30.00,ESE,119,6.0,7.0,65,0.00,,---,0.87,0.00,VWS V14.01,2013-02-08 02:07:00,
2013-02-07 20:10:00,40.9,30.1,30.00,NE,34,7.0,8.0,65,0.00,,---,0.87,0.00,VWS V14.01,2013-02-08 02:10:00,
2013-02-07 20:12:00,40.8,30.0,30.00,SW,230,6.0,7.0,65,0.00,,---,0.87,0.00,VWS V14.01,2013-02-08 02:12:00,
2013-02-07 20:15:00,40.5,30.0,30.00,NE,41,8.0,8.0,66,0.00,,---,0.87,0.00,VWS V14.01,2013-02-08 02:15:00,
2013-02-07 20:17:00,40.3,29.9,30.00,ESE,120,8.0,9.0,66,0.00,,---,0.87,0.00,VWS V14.01,2013-02-08 02:17:00,
2013-02-07 20:20:00,40.2,30.1,30.00,ENE,65,8.0,10.0,67,0.00,,---,0.87,0.00,VWS V14.01,2013-02-08 02:20:00,
2013-02-07 20:22:00,40.1,30.0,30.00,ESE,114,7.0,10.0,67,0.00,,---,0.87,0.00,VWS V14.01,2013-02-08 02:22:00,
2013-02-07 20:25:00,40.1,30.0,30.00,SE,127,6.0,10.0,67,0.00,,---,0.87,0.00,VWS V14.01,2013-02-08 02:25:00,
2013-02-07 20:27:00,39.9,30.2,30.00,North,8,9.0,10.0,68,0.00,,---,0.87,0.00,VWS V14.01,2013-02-08 02:27:00,
2013-02-07 20:30:00,39.9,30.2,30.00,NE,48,9.0,11.0,68,0.00,,---,0.87,0.00,VWS V14.01,2013-02-08 02:30:00,
2013-02-07 20:32:00,40.1,30.4,30.00,East,85,8.0,12.0,68,0.00,,---,0.87,0.00,VWS V14.01,2013-02-08 02:32:00,
2013-02-07 20:35:00,40.1,30.4,30.00,ESE,120,11.0,12.0,68,0.00,,---,0.87,0.00,VWS V14.01,2013-02-08 02:35:00,
2013-02-07 20:37:00,39.9,30.2,30.00,ESE,123,8.0,12.0,68,0.00,,---,0.87,0.00,VWS V14.01,2013-02-08 02:37:00,
2013-02-07 20:40:00,39.9,30.2,30.00,ENE,78,9.0,12.0,68,0.00,,---,0.87,0.00,VWS V14.01,2013-02-08 02:40:00,
2013-02-07 20:43:00,39.8,30.1,30.00,South,182,9.0,13.0,68,0.00,,---,0.87,0.00,VWS V14.01,2013-02-08 02:43:00,
2013-02-07 20:45:00,39.6,30.3,30.01,SE,137,6.0,13.0,69,0.00,,---,0.87,0.00,VWS V14.01,2013-02-08 02:45:00,
2013-02-07 20:48:00,39.3,30.0,30.01,SE,138,7.0,11.0,69,0.00,,---,0.87,0.00,VWS V14.01,2013-02-08 02:48:00,
2013-02-07 20:50:00,39.3,30.0,30.01,NE,49,9.0,11.0,69,0.00,,---,0.87,0.00,VWS V14.01,2013-02-08 02:50:00,
2013-02-07 20:53:00,39.3,30.0,30.01,ESE,123,11.0,13.0,69,0.00,,---,0.87,0.00,VWS V14.01,2013-02-08 02:53:00,
2013-02-07 20:55:00,39.3,30.0,30.01,West,268,8.0,13.0,69,0.00,,---,0.87,0.00,VWS V14.01,2013-02-08 02:55:00,
2013-02-07 20:58:00,39.3,30.0,30.01,SSW,206,10.0,12.0,69,0.00,,---,0.87,0.00,VWS V14.01,2013-02-08 02:58:00,
2013-02-07 21:00:00,39.2,29.9,30.02,North,10,8.0,12.0,69,0.00,,---,0.87,0.00,VWS V14.01,2013-02-08 03:00:00,
2013-02-07 21:03:00,39.1,30.2,30.02,NE,48,6.0,11.0,70,0.00,,---,0.87,0.00,VWS V14.01,2013-02-08 03:03:00,
2013-02-07 21:05:00,39.1,30.2,30.02,ESE,103,6.0,11.0,70,0.00,,---,0.87,0.00,VWS V14.01,2013-02-08 03:05:00,
2013-02-07 21:08:00,38.8,29.9,30.02,SSW,192,6.0,9.0,70,0.00,,---,0.87,0.00,VWS V14.01,2013-02-08 03:08:00,
2013-02-07 21:10:00,38.8,29.9,30.02,West,261,7.0,9.0,70,0.00,,---,0.87,0.00,VWS V14.01,2013-02-08 03:10:00,
2013-02-07 21:13:00,38.5,29.9,30.01,NE,49,7.0,10.0,71,0.00,,---,0.87,0.00,VWS V14.01,2013-02-08 03:13:00,
2013-02-07 21:15:00,38.5,29.9,30.01,North,356,8.0,10.0,71,0.00,,---,0.87,0.00,VWS V14.01,2013-02-08 03:15:00,
2013-02-07 21:18:00,38.3,29.7,30.01,West,272,10.0,10.0,71,0.00,,---,0.87,0.00,VWS V14.01,2013-02-08 03:18:00,
2013-02-07 21:20:00,38.3,30.1,30.01,WSW,243,6.0,10.0,72,0.00,,---,0.87,0.00,VWS V14.01,2013-02-08 03:20:00,
2013-02-07 21:23:00,38.0,29.8,30.01,SSE,154,6.0,8.0,72,0.00,,---,0.87,0.00,VWS V14.01,2013-02-08 03:23:00,
2013-02-07 21:25:00,38.0,29.8,30.01,ESE,109,5.0,8.0,72,0.00,,---,0.87,0.00,VWS V14.01,2013-02-08 03:25:00,
2013-02-07 21:28:00,37.8,29.6,30.02,SSW,198,5.0,7.0,72,0.00,,---,0.87,0.00,VWS V14.01,2013-02-08 03:28:00,
2013-02-07 21:30:00,37.8,29.6,30.02,East,90,6.0,7.0,72,0.00,,---,0.87,0.00,VWS V14.01,2013-02-08 03:30:00,
2013-02-07 21:34:00,37.8,29.6,30.02,SW,224,6.0,8.0,72,0.00,,---,0.87,0.00,VWS V14.01,2013-02-08 03:34:00,
2013-02-07 21:35:00,37.8,29.6,30.02,SW,233,6.0,8.0,72,0.00,,---,0.87,0.00,VWS V14.01,2013-02-08 03:35:00,
2013-02-07 21:39:00,37.5,29.6,30.02,ESE,112,7.0,8.0,73,0.00,,---,0.87,0.00,VWS V14.01,2013-02-08 03:39:00,
2013-02-07 21:40:00,37.5,29.6,30.02,North,353,7.0,8.0,73,0.00,,---,0.87,0.00,VWS V14.01,2013-02-08 03:40:00,
2013-02-07 21:44:00,37.3,29.5,30.03,WNW,282,7.0,8.0,73,0.00,,---,0.87,0.00,VWS V14.01,2013-02-08 03:44:00,
2013-02-07 21:45:00,37.3,29.5,30.03,SE,143,6.0,8.0,73,0.00,,---,0.87,0.00,VWS V14.01,2013-02-08 03:45:00,
2013-02-07 21:49:00,36.9,29.1,30.03,SSE,147,5.0,7.0,73,0.00,,---,0.87,0.00,VWS V14.01,2013-02-08 03:49:00,
2013-02-07 21:50:00,36.9,29.4,30.03,SSE,157,6.0,7.0,74,0.00,,---,0.87,0.00,VWS V14.01,2013-02-08 03:50:00,
2013-02-07 21:54:00,36.6,29.1,30.03,SSW,212,5.0,6.0,74,0.00,,---,0.87,0.00,VWS V14.01,2013-02-08 03:54:00,
2013-02-07 21:55:00,36.6,29.1,30.03,West,281,5.0,6.0,74,0.00,,---,0.87,0.00,VWS V14.01,2013-02-08 03:55:00,
2013-02-07 21:59:00,36.3,29.1,30.03,SSW,209,5.0,6.0,75,0.00,,---,0.87,0.00,VWS V14.01,2013-02-08 03:59:00,
2013-02-07 22:00:00,36.3,29.1,30.03,SSW,209,5.0,6.0,75,0.00,,---,0.87,0.00,VWS V14.01,2013-02-08 04:00:00,
2013-02-07 22:04:00,36.2,29.0,30.03,SSE,160,6.0,6.0,75,0.00,,---,0.87,0.00,VWS V14.01,2013-02-08 04:04:00,
2013-02-07 22:05:00,36.2,29.0,30.03,SSE,160,6.0,6.0,75,0.00,,---,0.87,0.00,VWS V14.01,2013-02-08 04:05:00,
2013-02-07 22:09:00,35.8,29.0,30.03,ENE,66,8.0,8.0,76,0.00,,---,0.87,0.00,VWS V14.01,2013-02-08 04:09:00,
2013-02-07 22:10:00,35.8,29.0,30.03,ENE,66,8.0,8.0,76,0.00,,---,0.87,0.00,VWS V14.01,2013-02-08 04:10:00,
2013-02-07 22:14:00,35.3,28.8,30.03,SSW,213,7.0,10.0,77,0.00,,---,0.87,0.00,VWS V14.01,2013-02-08 04:14:00,
2013-02-07 22:15:00,35.3,28.8,30.03,SSW,213,7.0,10.0,77,0.00,,---,0.87,0.00,VWS V14.01,2013-02-08 04:15:00,
2013-02-07 22:19:00,35.0,28.5,30.03,ENE,66,7.0,7.0,77,0.00,,---,0.87,0.00,VWS V14.01,2013-02-08 04:19:00,
2013-02-07 22:20:00,35.0,28.5,30.03,NW,305,7.0,9.0,77,0.00,,---,0.87,0.00,VWS V14.01,2013-02-08 04:20:00,
2013-02-07 22:24:00,34.6,28.8,30.03,SW,234,7.0,7.0,79,0.00,,---,0.87,0.00,VWS V14.01,2013-02-08 04:24:00,
2013-02-07 22:25:00,34.6,28.8,30.03,SW,220,5.0,8.0,79,0.00,,---,0.87,0.00,VWS V14.01,2013-02-08 04:25:00,
2013-02-07 22:29:00,34.4,28.6,30.04,SE,145,8.0,9.0,79,0.00,,---,0.87,0.00,VWS V14.01,2013-02-08 04:29:00,
2013-02-07 22:30:00,34.4,28.6,30.04,NNE,32,9.0,11.0,79,0.00,,---,0.87,0.00,VWS V14.01,2013-02-08 04:30:00,
2013-02-07 22:34:00,34.3,28.5,30.04,SSE,162,9.0,11.0,79,0.00,,---,0.87,0.00,VWS V14.01,2013-02-08 04:34:00,
2013-02-07 22:35:00,34.4,28.6,30.04,ENE,78,9.0,11.0,79,0.00,,---,0.87,0.00,VWS V14.01,2013-02-08 04:35:00,
2013-02-07 22:39:00,34.0,28.5,30.04,ENE,73,9.0,9.0,80,0.00,,---,0.87,0.00,VWS V14.01,2013-02-08 04:39:00,
2013-02-07 22:40:00,34.1,28.6,30.04,ESE,114,7.0,11.0,80,0.00,,---,0.87,0.00,VWS V14.01,2013-02-08 04:40:00,
2013-02-07 22:45:00,33.8,28.3,30.04,SW,219,8.0,10.0,80,0.00,,---,0.87,0.00,VWS V14.01,2013-02-08 04:45:00,
2013-02-07 22:50:00,33.5,28.3,30.04,West,281,10.0,10.0,81,0.00,,---,0.87,0.00,VWS V14.01,2013-02-08 04:50:00,
2013-02-07 22:55:00,33.5,28.6,30.04,NE,56,8.0,11.0,82,0.00,,---,0.87,0.00,VWS V14.01,2013-02-08 04:55:00,
2013-02-07 23:00:00,33.7,28.8,30.04,SE,127,7.0,8.0,82,0.00,,---,0.87,0.00,VWS V14.01,2013-02-08 05:00:00,
2013-02-07 23:01:00,33.7,28.8,30.04,NE,56,7.0,9.0,82,0.00,,---,0.87,0.00,VWS V14.01,2013-02-08 05:01:00,
2013-02-07 23:05:00,33.5,28.6,30.04,SW,215,7.0,9.0,82,0.00,,---,0.87,0.00,VWS V14.01,2013-02-08 05:05:00,
2013-02-07 23:07:00,33.4,28.5,30.04,WNW,285,6.0,8.0,82,0.00,,---,0.87,0.00,VWS V14.01,2013-02-08 05:07:00,
2013-02-07 23:10:00,33.2,28.3,30.04,NW,309,6.0,9.0,82,0.00,,---,0.87,0.00,VWS V14.01,2013-02-08 05:10:00,
2013-02-07 23:12:00,33.1,28.2,30.04,SW,227,10.0,10.0,82,0.00,,---,0.87,0.00,VWS V14.01,2013-02-08 05:12:00,
2013-02-07 23:15:00,33.1,28.2,30.04,North,0,8.0,10.0,82,0.00,,---,0.87,0.00,VWS V14.01,2013-02-08 05:15:00,
2013-02-07 23:17:00,32.9,28.0,30.04,West,267,7.0,10.0,82,0.00,,---,0.87,0.00,VWS V14.01,2013-02-08 05:17:00,
2013-02-07 23:20:00,32.9,28.0,30.04,SSW,195,7.0,10.0,82,0.00,,---,0.87,0.00,VWS V14.01,2013-02-08 05:20:00,
2013-02-07 23:22:00,32.8,28.2,30.04,WSW,237,8.0,8.0,83,0.00,,---,0.87,0.00,VWS V14.01,2013-02-08 05:22:00,
2013-02-07 23:25:00,32.7,28.1,30.04,East,99,5.0,8.0,83,0.00,,---,0.87,0.00,VWS V14.01,2013-02-08 05:25:00,
2013-02-07 23:27:00,32.5,27.9,30.04,SSW,196,8.0,9.0,83,0.00,,---,0.87,0.00,VWS V14.01,2013-02-08 05:27:00,
2013-02-07 23:30:00,32.5,27.9,30.05,WSW,246,7.0,9.0,83,0.00,,---,0.87,0.00,VWS V14.01,2013-02-08 05:30:00,
2013-02-07 23:32:00,32.4,27.8,30.05,NE,44,7.0,8.0,83,0.00,,---,0.87,0.00,VWS V14.01,2013-02-08 05:32:00,
2013-02-07 23:35:00,32.4,28.1,30.05,ESE,102,7.0,8.0,84,0.00,,---,0.87,0.00,VWS V14.01,2013-02-08 05:35:00,
2013-02-07 23:37:00,32.2,27.9,30.05,NNW,346,8.0,8.0,84,0.00,,---,0.87,0.00,VWS V14.01,2013-02-08 05:37:00,
2013-02-07 23:40:00,32.2,27.9,30.05,SSE,157,6.0,8.0,84,0.00,,---,0.87,0.00,VWS V14.01,2013-02-08 05:40:00,
2013-02-07 23:42:00,32.1,28.1,30.05,SSE,154,3.0,7.0,85,0.00,,---,0.87,0.00,VWS V14.01,2013-02-08 05:42:00,
2013-02-07 23:45:00,32.1,28.1,30.07,NNE,18,5.0,7.0,85,0.00,,---,0.87,0.00,VWS V14.01,2013-02-08 05:45:00,
2013-02-07 23:47:00,31.9,27.9,30.07,SSE,151,6.0,9.0,85,0.00,,---,0.87,0.00,VWS V14.01,2013-02-08 05:47:00,
2013-02-07 23:50:00,31.8,27.8,30.07,ENE,78,7.0,9.0,85,0.00,,---,0.87,0.00,VWS V14.01,2013-02-08 05:50:00,
2013-02-07 23:52:00,31.8,27.8,30.07,SSW,199,7.0,10.0,85,0.00,,---,0.87,0.00,VWS V14.01,2013-02-08 05:52:00,
2013-02-07 23:55:00,31.6,27.9,30.07,SW,229,7.0,10.0,86,0.00,,---,0.87,0.00,VWS V14.01,2013-02-08 05:55:00,
2013-02-07 23:58:00,31.5,27.8,30.07,SE,141,5.0,7.0,86,0.00,,---,0.87,0.00,VWS V14.01,2013-02-08 05:58:00,